LFMU/BZR METAR and TAF weather

Enter ICAO airport designator
Station Type Date Time Source
LFMU METAR 2021/10/20 07:00 UTC NOAA

LFMU 200700Z AUTO 12011KT 9999 OVC017 19/16 Q1022 BECMG BKN014


Station Type Date Time Source
LFMU Decoded METAR 2021/10/20 07:00 UTC NOAA

Beziers / Vias, France (LFMU) 43-19N 003-21E
Oct 20, 2021 - 03:00 AM EDT / 2021.10.20 0700 UTC
Wind: from the ESE (120 degrees) at 13 MPH (11 KT):0
Visibility: greater than 7 mile(s):0
Sky conditions: overcast
Temperature: 66 F (19 C)
Dew Point: 60 F (16 C)
Relative Humidity: 82%
Pressure (altimeter): 30.18 in. Hg (1022 hPa)
ob: LFMU 200700Z AUTO 12011KT 9999 OVC017 19/16 Q1022 BECMG BKN014
cycle: 7

Station Type Date Time Source
LFMU TAF 2021/10/20 03:42 UTC NOAA

TAF LFMU 200200Z 2003/2103 13013G23KT 9999 BKN014 PROB40
TEMPO 2003/2006 OVC006
BECMG 2100/2102 33010KT

Example: see airport list